»·PEaware :: DFGCW 7S0-U82

DFGCW :: 7S0-U82

FLIGHT INFORMATION

Flight Status: Arrived
Operator: Unknown
More flights by this operator :: More flights under this callsign
Pilot: Klaus A. (15485)
Aircraft: PILATUS PC-12 EAGLE
(PC12)
More flights by this aircraft type
Origin: 7S0 Ronan
United States
Destination: U82 Council Mun
United States
More flights between these airports :: More routes between these airports
Route: +MSO DNJ
File this flight plan on PilotEdge
Remarks: / L Custom weather
Altitude:
(Current/Filed)
16,000ft
Speed:
(Current/Filed)
240kts
Departed: 26-Nov-18 08:26 AM
Arrived: 26-Nov-18 09:25 AM
Distance/Time
Traveled:
1nm/0:59
Distance/Time
To Go:
Arrived

Flight Plot

Page will automatically refresh every two minutes.

Flight plan parsing failed; only flown route is shown


Map Options




Map Legend


Flown Route
Filed Route
Departure Airport
Arrival Airport
Navaid (VOR, NDB)
Fix

Horizontal Profiles

Position Reports

Time Latitude Longitude Heading Altitude Ground
Speed
26-Nov-18 08:23 47.568193 -114.103056 88 3089ft 0kts
26-Nov-18 08:24 47.568193 -114.103056 88 3089ft 0kts
26-Nov-18 08:25 47.567977 -114.102109 147 3090ft 12kts
26-Nov-18 08:26 47.562656 -114.102057 180 3090ft 20kts
26-Nov-18 08:27 47.560782 -114.102028 158 3090ft 0kts
26-Nov-18 08:28 47.560700 -114.101947 130 3089ft 5kts
26-Nov-18 08:29 47.568760 -114.101321 358 3373ft 97kts
26-Nov-18 08:30 47.575340 -114.127449 175 5446ft 147kts
26-Nov-18 08:31 47.532762 -114.119086 168 7634ft 161kts
26-Nov-18 08:32 47.487923 -114.112249 172 9748ft 165kts
26-Nov-18 08:33 47.441589 -114.108345 174 11644ft 170kts
26-Nov-18 08:34 47.393833 -114.105556 174 13378ft 175kts
26-Nov-18 08:35 47.344869 -114.103118 175 15192ft 179kts
26-Nov-18 08:36 47.294007 -114.100716 176 16507ft 202kts
26-Nov-18 08:37 47.229240 -114.097779 176 16508ft 253kts
26-Nov-18 08:38 47.156777 -114.094574 176 16504ft 266kts
26-Nov-18 08:39 47.082378 -114.091292 176 16503ft 269kts
26-Nov-18 08:40 47.007647 -114.088001 176 16504ft 270kts
26-Nov-18 08:41 46.932635 -114.084677 176 16503ft 271kts
26-Nov-18 08:42 46.865871 -114.125762 208 16502ft 272kts
26-Nov-18 08:43 46.804234 -114.190415 215 16502ft 272kts
26-Nov-18 08:44 46.742591 -114.253750 215 16502ft 275kts
26-Nov-18 08:45 46.679892 -114.318085 215 16501ft 276kts
26-Nov-18 08:46 46.616960 -114.382515 215 16502ft 276kts
26-Nov-18 08:47 46.554158 -114.446625 215 16502ft 277kts
26-Nov-18 08:48 46.490995 -114.510865 215 16502ft 277kts
26-Nov-18 08:49 46.427846 -114.574870 215 16503ft 277kts
26-Nov-18 08:50 46.364637 -114.638754 215 16502ft 277kts
26-Nov-18 08:51 46.302252 -114.701378 214 16502ft 277kts
26-Nov-18 08:52 46.239173 -114.764705 214 16502ft 277kts
26-Nov-18 08:53 46.175785 -114.828223 214 16503ft 277kts
26-Nov-18 08:54 46.112658 -114.891309 214 16503ft 277kts
26-Nov-18 08:55 46.049413 -114.954338 214 16502ft 277kts
26-Nov-18 08:56 45.986035 -115.017318 214 16502ft 277kts
26-Nov-18 08:57 45.922563 -115.080182 214 16505ft 277kts
26-Nov-18 08:58 45.859985 -115.141083 214 16500ft 277kts
26-Nov-18 08:59 45.796471 -115.203636 214 16500ft 276kts
26-Nov-18 09:00 45.733039 -115.265814 214 16502ft 277kts
26-Nov-18 09:01 45.669512 -115.327926 214 16502ft 277kts
26-Nov-18 09:02 45.606115 -115.389746 214 16503ft 276kts
26-Nov-18 09:03 45.542485 -115.451603 214 16504ft 277kts
26-Nov-18 09:04 45.478942 -115.513213 214 16502ft 277kts
26-Nov-18 09:05 45.415358 -115.574682 214 16504ft 277kts
26-Nov-18 09:06 45.351461 -115.636297 214 16502ft 277kts
26-Nov-18 09:07 45.288658 -115.696686 213 16502ft 277kts
26-Nov-18 09:08 45.225102 -115.757621 213 16503ft 277kts
26-Nov-18 09:09 45.161087 -115.818954 214 16140ft 278kts
26-Nov-18 09:10 45.098884 -115.879043 214 14839ft 266kts
26-Nov-18 09:11 45.037423 -115.935643 216 13536ft 263kts
26-Nov-18 09:12 44.978420 -115.995170 215 12254ft 261kts
26-Nov-18 09:13 44.921767 -116.051961 215 10944ft 239kts
26-Nov-18 09:14 44.870053 -116.103593 215 9672ft 230kts
26-Nov-18 09:15 44.818376 -116.155213 215 8513ft 220kts
26-Nov-18 09:16 44.773635 -116.200940 226 8491ft 185kts
26-Nov-18 09:17 44.764213 -116.269849 268 8651ft 189kts
26-Nov-18 09:18 44.755627 -116.347311 261 8690ft 205kts
26-Nov-18 09:19 44.748442 -116.427034 278 7700ft 205kts
26-Nov-18 09:20 44.740265 -116.502036 213 6582ft 221kts
26-Nov-18 09:21 44.703872 -116.466482 76 5732ft 185kts
26-Nov-18 09:22 44.741436 -116.428891 12 5076ft 171kts
26-Nov-18 09:23 44.788819 -116.424238 336 4330ft 177kts
26-Nov-18 09:24 44.781249 -116.479924 175 4214ft 168kts
26-Nov-18 09:25 44.740991 -116.476190 163 4172ft 110kts
26-Nov-18 09:26 44.723518 -116.451106 54 3567ft 93kts
26-Nov-18 09:27 44.745687 -116.446131 13 2984ft 76kts
26-Nov-18 09:28 44.750325 -116.445594 281 2967ft 11kts
26-Nov-18 09:29 44.750491 -116.446230 91 2967ft 0kts
26-Nov-18 09:30 44.750491 -116.446231 91 2966ft 0kts
26-Nov-18 09:31 44.750491 -116.446231 91 2966ft 0kts
26-Nov-18 09:32 44.750491 -116.446231 91 2966ft 0kts
26-Nov-18 09:33 44.750491 -116.446231 91 2966ft 0kts
26-Nov-18 09:34 44.750491 -116.446231 91 2966ft 0kts
26-Nov-18 09:35 44.750491 -116.446231 91 2966ft 0kts
26-Nov-18 09:36 44.750491 -116.446231 91 2966ft 0kts
26-Nov-18 09:37 44.750491 -116.446231 91 2966ft 0kts
26-Nov-18 09:38 47.560914 -114.101091 355 3090ft 0kts
26-Nov-18 09:39 47.576997 -114.127448 178 5350ft 148kts

Navigation Log

Ident Type
Flight plan parsing failed, navigation log unavailable